Time;durP1;ratioP1;P1;durP2;ratioP2;P2;SDS_P1;SDS_P2;PMS_P1;PMS_P2;Temp;Humidity;BMP_temperature;BMP_pressure;BME280_temperature;BME280_humidity;BME280_pressure;Samples;Min_cycle;Max_cycle;Signal;HPM_P1;HPM_P2
2023/10/11 00:00:53;;;;;;;;;;;;;;;9.78;87.30;99369.70;110482;1270;85432;-61
2023/10/11 00:03:52;;;;;;;;;;;;;;;9.80;87.59;99364.91;110452;1271;23239;-62
2023/10/11 00:06:20;;;;;;;;;;;;;;;9.83;87.84;99351.02;110396;1270;85972;-61
2023/10/11 00:08:50;;;;;;;;;;;;;;;9.84;87.69;99352.02;110466;1274;22436;-61
2023/10/11 00:11:24;;;;;;;;;;;;;;;9.85;87.78;99341.89;110347;1271;85751;-61
2023/10/11 00:13:54;;;;;;;;;;;;;;;9.84;87.94;99336.21;110498;1269;22452;-61
2023/10/11 00:16:22;;;;;;;;;;;;;;;9.84;88.00;99337.07;110444;1270;22418;-62
2023/10/11 00:18:51;;;;;;;;;;;;;;;9.81;88.01;99334.45;110247;1271;85116;-61
2023/10/11 00:21:19;;;;;;;;;;;;;;;9.81;88.05;99332.55;110415;1271;22475;-62
2023/10/11 00:23:51;;;;;;;;;;;;;;;9.78;88.22;99332.19;110295;1274;84183;-61
2023/10/11 00:26:19;;;;;;;;;;;;;;;9.70;88.36;99334.86;110381;1271;22429;-62
2023/10/11 00:28:48;;;;;;;;;;;;;;;9.62;88.84;99339.02;110445;1273;22443;-62
2023/10/11 00:31:19;;;;;;;;;;;;;;;9.59;89.25;99336.72;110367;1270;85773;-62
2023/10/11 00:33:47;;;;;;;;;;;;;;;9.60;89.69;99340.52;110469;1270;22446;-62
2023/10/11 00:36:16;;;;;;;;;;;;;;;9.61;90.14;99336.14;110393;1272;85110;-61
2023/10/11 00:38:48;;;;;;;;;;;;;;;9.63;90.56;99329.61;110453;1277;23337;-61
2023/10/11 00:41:19;;;;;;;;;;;;;;;9.67;90.54;99321.60;110329;1258;85609;-61
2023/10/11 00:43:52;;;;;;;;;;;;;;;9.71;90.96;99317.92;110466;1276;22427;-61
2023/10/11 00:46:24;;;;;;;;;;;;;;;9.74;91.03;99317.07;110429;1274;22474;-61
2023/10/11 00:48:56;;;;;;;;;;;;;;;9.77;91.19;99311.86;110336;1271;85481;-61
2023/10/11 00:51:29;;;;;;;;;;;;;;;9.80;91.28;99309.83;110385;1271;22477;-61
2023/10/11 00:53:57;;;;;;;;;;;;;;;9.83;91.40;99301.69;110413;1272;86433;-61
2023/10/11 00:56:31;;;;;;;;;;;;;;;9.87;91.42;99295.39;110406;1260;22458;-61
2023/10/11 00:59:03;;;;;;;;;;;;;;;9.92;91.43;99293.74;110482;1270;22428;-63
2023/10/11 01:01:33;;;;;;;;;;;;;;;9.94;91.74;99293.46;110343;1277;85724;-61
2023/10/11 01:04:00;;;;;;;;;;;;;;;9.98;91.98;99294.13;110443;1259;22965;-61
2023/10/11 01:06:28;;;;;;;;;;;;;;;10.01;91.81;99291.16;110476;1276;84490;-61
2023/10/11 01:08:56;;;;;;;;;;;;;;;10.03;91.98;99283.95;110427;1274;22503;-62
2023/10/11 01:11:24;;;;;;;;;;;;;;;10.06;92.27;99283.11;110389;1271;85956;-62
2023/10/11 01:13:52;;;;;;;;;;;;;;;10.11;92.64;99284.77;110495;1277;22449;-61
2023/10/11 01:16:28;;;;;;;;;;;;;;;10.14;92.88;99274.00;110412;1274;23246;-61
2023/10/11 01:18:55;;;;;;;;;;;;;;;10.17;92.67;99275.95;110387;1271;85603;-61
2023/10/11 01:21:22;;;;;;;;;;;;;;;10.18;92.83;99275.70;110453;1278;23712;-61
2023/10/11 01:23:49;;;;;;;;;;;;;;;10.21;93.02;99274.32;110468;1271;85385;-61
2023/10/11 01:26:17;;;;;;;;;;;;;;;10.25;93.30;99267.84;110407;1276;22500;-62
2023/10/11 01:28:51;;;;;;;;;;;;;;;10.31;93.38;99260.28;110463;1272;22477;-62
2023/10/11 01:31:18;;;;;;;;;;;;;;;10.34;93.56;99254.51;110363;1274;85713;-62
2023/10/11 01:33:48;;;;;;;;;;;;;;;10.38;93.63;99246.82;110543;1276;22606;-61
2023/10/11 01:36:23;;;;;;;;;;;;;;;10.43;93.69;99243.95;110399;1274;85398;-62
2023/10/11 01:38:50;;;;;;;;;;;;;;;10.49;93.78;99246.23;110375;1268;22432;-62
2023/10/11 01:41:21;;;;;;;;;;;;;;;10.51;93.63;99244.17;110364;1272;87176;-61
2023/10/11 01:43:52;;;;;;;;;;;;;;;10.55;93.84;99240.50;110457;1277;22467;-64
2023/10/11 01:46:27;;;;;;;;;;;;;;;10.59;93.84;99235.23;110395;1275;23062;-62
2023/10/11 01:48:55;;;;;;;;;;;;;;;10.64;94.02;99236.71;110418;1270;85406;-62
2023/10/11 01:51:29;;;;;;;;;;;;;;;10.68;94.10;99234.55;110445;1274;22652;-61
2023/10/11 01:53:57;;;;;;;;;;;;;;;10.72;94.11;99228.98;110427;1273;85474;-61
2023/10/11 01:56:24;;;;;;;;;;;;;;;10.75;94.14;99228.64;110446;1274;24006;-62
2023/10/11 01:58:51;;;;;;;;;;;;;;;10.78;94.12;99230.88;110388;1277;22461;-61
2023/10/11 02:01:30;;;;;;;;;;;;;;;10.81;94.31;99228.61;110379;1271;86138;-62
2023/10/11 02:03:58;;;;;;;;;;;;;;;10.83;94.40;99228.83;110487;1274;23134;-61
2023/10/11 02:06:31;;;;;;;;;;;;;;;10.85;94.63;99227.70;110435;1275;83997;-61
2023/10/11 02:08:59;;;;;;;;;;;;;;;10.87;94.58;99217.82;110467;1272;23099;-61
2023/10/11 02:11:29;;;;;;;;;;;;;;;10.90;94.70;99220.10;110390;1275;87216;-62
2023/10/11 02:14:00;;;;;;;;;;;;;;;10.93;95.07;99224.27;110467;1273;22426;-62
2023/10/11 02:16:31;;;;;;;;;;;;;;;10.95;95.04;99221.54;110357;1275;22476;-62
2023/10/11 02:18:59;;;;;;;;;;;;;;;10.96;95.35;99217.48;110418;1273;84335;-62
2023/10/11 02:21:29;;;;;;;;;;;;;;;11.00;95.74;99202.84;110466;1273;22500;-61
2023/10/11 02:23:57;;;;;;;;;;;;;;;11.04;96.05;99195.64;110424;1273;86031;-61
2023/10/11 02:26:36;;;;;;;;;;;;;;;11.07;96.06;99191.11;110464;1273;22437;-61
2023/10/11 02:29:15;;;;;;;;;;;;;;;11.09;96.12;99195.72;110427;1270;23398;-61
2023/10/11 02:31:43;;;;;;;;;;;;;;;11.10;96.29;99198.27;110369;1271;22446;-61
2023/10/11 02:34:13;;;;;;;;;;;;;;;11.12;96.57;99193.93;110443;1273;22563;-62
2023/10/11 02:36:44;;;;;;;;;;;;;;;11.15;96.60;99186.61;110339;1270;85898;-62
2023/10/11 02:39:20;;;;;;;;;;;;;;;11.19;96.73;99183.97;110422;1270;23349;-62
2023/10/11 02:41:49;;;;;;;;;;;;;;;11.20;96.73;99184.05;110371;1272;86281;-62
2023/10/11 02:44:16;;;;;;;;;;;;;;;11.22;96.84;99173.67;110478;1273;23190;-62
2023/10/11 02:46:44;;;;;;;;;;;;;;;11.24;96.95;99173.05;110438;1270;22455;-62
2023/10/11 02:49:20;;;;;;;;;;;;;;;11.26;97.08;99176.58;110383;1272;85767;-62
2023/10/11 02:51:59;;;;;;;;;;;;;;;11.29;97.37;99162.29;110372;1277;22484;-61
2023/10/11 02:54:34;;;;;;;;;;;;;;;11.31;97.46;99156.44;110299;1271;85291;-62
2023/10/11 02:57:05;;;;;;;;;;;;;;;11.33;97.93;99156.31;110424;1268;22501;-61
2023/10/11 02:59:33;;;;;;;;;;;;;;;11.35;98.05;99155.98;110248;1271;85950;-61
2023/10/11 03:02:00;;;;;;;;;;;;;;;11.37;98.20;99148.23;110447;1267;22493;-62
2023/10/11 03:04:28;;;;;;;;;;;;;;;11.39;98.21;99147.61;110441;1274;22487;-62
2023/10/11 03:06:55;;;;;;;;;;;;;;;11.41;98.31;99142.41;110367;1272;85264;-61
2023/10/11 03:09:27;;;;;;;;;;;;;;;11.42;98.40;99139.20;110394;1265;23214;-62
2023/10/11 03:11:57;;;;;;;;;;;;;;;11.42;98.45;99133.41;110352;1273;86174;-61
2023/10/11 03:14:25;;;;;;;;;;;;;;;11.43;98.54;99128.48;110437;1269;22467;-61
2023/10/11 03:17:05;;;;;;;;;;;;;;;11.45;98.76;99119.16;110310;1273;22507;-62
2023/10/11 03:19:34;;;;;;;;;;;;;;;11.48;98.90;99111.20;110346;1271;86588;-61
2023/10/11 03:22:02;;;;;;;;;;;;;;;11.46;98.87;99104.65;110328;1270;22428;-62
2023/10/11 03:24:33;;;;;;;;;;;;;;;11.47;99.36;99096.77;110400;1271;85226;-61
2023/10/11 03:27:01;;;;;;;;;;;;;;;11.51;99.71;99094.98;110376;1264;22507;-61
2023/10/11 03:29:30;;;;;;;;;;;;;;;11.54;99.69;99087.77;110373;1272;85899;-61
2023/10/11 03:31:57;;;;;;;;;;;;;;;11.56;99.83;99083.97;110437;1270;23780;-62
2023/10/11 03:34:29;;;;;;;;;;;;;;;11.59;99.96;99085.52;110349;1277;23587;-63
2023/10/11 03:37:00;;;;;;;;;;;;;;;11.61;100.00;99076.36;110349;1274;85569;-61
2023/10/11 03:42:06;;;;;;;;;;;;;;;11.65;100.00;99063.92;110379;1272;84531;-61
2023/10/11 03:44:44;;;;;;;;;;;;;;;11.66;100.00;99059.35;110442;1270;23253;-63
2023/10/11 03:47:14;;;;;;;;;;;;;;;11.65;100.00;99052.45;110430;1270;22633;-61
2023/10/11 03:52:52;;;;;;;;;;;;;;;11.66;100.00;99052.03;110325;1273;22423;-61
2023/10/11 03:55:09;;;;;;;;;;;;;;;11.67;100.00;99048.79;110331;1274;85944;-61
2023/10/11 03:57:41;;;;;;;;;;;;;;;11.70;100.00;99044.27;110433;1272;22529;-61
2023/10/11 04:02:55;;;;;;;;;;;;;;;11.74;100.00;99028.66;110423;1272;22454;-62
2023/10/11 04:05:28;;;;;;;;;;;;;;;11.75;100.00;99023.02;110533;1273;85619;-61
2023/10/11 04:07:56;;;;;;;;;;;;;;;11.75;100.00;99017.28;110261;1273;22460;-62
2023/10/11 04:10:39;;;;;;;;;;;;;;;11.74;100.00;99005.96;110457;1272;22527;-63
2023/10/11 04:13:14;;;;;;;;;;;;;;;11.74;100.00;99004.62;110189;1272;86426;-62
2023/10/11 04:15:41;;;;;;;;;;;;;;;11.73;100.00;98999.07;110445;1271;23538;-62
2023/10/11 04:18:20;;;;;;;;;;;;;;;11.73;100.00;98993.16;110520;1270;85778;-63
2023/10/11 04:20:59;;;;;;;;;;;;;;;11.72;100.00;98983.41;110432;1270;22523;-65
2023/10/11 04:23:27;;;;;;;;;;;;;;;11.72;100.00;98974.73;110498;1269;84437;-62
2023/10/11 04:25:55;;;;;;;;;;;;;;;11.73;100.00;98975.73;110526;1269;23222;-62
2023/10/11 04:28:25;;;;;;;;;;;;;;;11.73;100.00;98976.25;110420;1274;23238;-62
2023/10/11 04:31:27;;;;;;;;;;;;;;;11.73;100.00;98968.58;110412;1273;85638;-62
2023/10/11 04:33:44;;;;;;;;;;;;;;;11.73;100.00;98975.70;110312;1270;23617;-62
2023/10/11 04:36:11;;;;;;;;;;;;;;;11.72;100.00;98971.42;110343;1270;85461;-62
2023/10/11 04:38:39;;;;;;;;;;;;;;;11.70;100.00;98971.04;110344;1274;22445;-62
2023/10/11 04:41:14;;;;;;;;;;;;;;;11.70;100.00;98969.31;110416;1277;22528;-62
2023/10/11 04:44:04;;;;;;;;;;;;;;;11.72;100.00;98963.58;110443;1271;22458;-62
2023/10/11 04:46:31;;;;;;;;;;;;;;;11.76;100.00;98963.00;110251;1271;22445;-62
2023/10/11 04:49:18;;;;;;;;;;;;;;;11.79;100.00;98956.00;110170;1271;86097;-62
2023/10/11 04:51:46;;;;;;;;;;;;;;;11.80;100.00;98955.40;110281;1270;22511;-62
2023/10/11 04:54:14;;;;;;;;;;;;;;;11.80;100.00;98947.71;109984;1274;86085;-62
2023/10/11 04:59:36;;;;;;;;;;;;;;;11.83;100.00;98937.23;110192;1271;22472;-62
2023/10/11 05:02:09;;;;;;;;;;;;;;;11.83;100.00;98936.15;110414;1263;22473;-62
2023/10/11 05:04:42;;;;;;;;;;;;;;;11.84;100.00;98934.03;110222;1270;287537;-62
2023/10/11 05:07:09;;;;;;;;;;;;;;;11.86;100.00;98929.59;110326;1270;86123;-62
2023/10/11 05:09:40;;;;;;;;;;;;;;;11.89;100.00;98931.52;110375;1270;22444;-62
2023/10/11 05:12:19;;;;;;;;;;;;;;;11.90;100.00;98930.22;110127;1271;85245;-62
2023/10/11 05:25:16;;;;;;;;;;;;;;;11.93;100.00;98908.02;110297;1270;85409;-64
2023/10/11 05:27:56;;;;;;;;;;;;;;;11.94;100.00;98905.16;110212;1273;23609;-62
2023/10/11 05:35:59;;;;;;;;;;;;;;;12.03;100.00;98904.95;110469;1268;22447;-59
2023/10/11 05:52:14;;;;;;;;;;;;;;;12.27;100.00;98891.26;110297;1272;23279;-60
2023/10/11 05:54:41;;;;;;;;;;;;;;;12.31;100.00;98887.87;110137;1273;85577;-60
2023/10/11 05:57:09;;;;;;;;;;;;;;;12.36;100.00;98893.69;110315;1270;22474;-57
2023/10/11 05:59:36;;;;;;;;;;;;;;;12.41;100.00;98905.05;110307;1274;86232;-64
2023/10/11 06:02:13;;;;;;;;;;;;;;;12.44;100.00;98904.61;110552;1270;23372;-61
2023/10/11 06:04:40;;;;;;;;;;;;;;;12.49;100.00;98911.93;110368;1264;22449;-55
2023/10/11 06:07:15;;;;;;;;;;;;;;;12.55;100.00;98919.45;110390;1270;85967;-61
2023/10/11 06:09:43;;;;;;;;;;;;;;;12.59;100.00;98920.84;110292;1274;23369;-61
2023/10/11 06:12:23;;;;;;;;;;;;;;;12.63;100.00;98924.44;110232;1273;86480;-60
2023/10/11 06:14:52;;;;;;;;;;;;;;;12.66;100.00;98922.14;110556;1270;22449;-61
2023/10/11 06:17:32;;;;;;;;;;;;;;;12.71;100.00;98913.77;110374;1273;22462;-56
2023/10/11 06:20:17;;;;;;;;;;;;;;;12.75;100.00;98900.89;110511;1270;22437;-59
2023/10/11 06:22:44;;;;;;;;;;;;;;;12.79;100.00;98899.11;110530;1270;22441;-60
2023/10/11 06:25:13;;;;;;;;;;;;;;;12.84;100.00;98899.09;110486;1270;85496;-60
2023/10/11 06:30:27;;;;;;;;;;;;;;;12.98;100.00;98883.25;110274;1271;85084;-61
2023/10/11 06:32:56;;;;;;;;;;;;;;;13.06;100.00;98880.76;110490;1269;22458;-57
2023/10/11 06:35:23;;;;;;;;;;;;;;;13.11;100.00;98881.43;110551;1270;23244;-59
2023/10/11 06:37:55;;;;;;;;;;;;;;;13.16;100.00;98882.63;110334;1270;84010;-62
2023/10/11 06:40:47;;;;;;;;;;;;;;;13.26;100.00;98874.32;110303;1272;23109;-59
2023/10/11 06:43:14;;;;;;;;;;;;;;;13.33;100.00;98876.75;110267;1270;85456;-58
2023/10/11 06:45:42;;;;;;;;;;;;;;;13.41;100.00;98867.95;110206;1273;23437;-59
2023/10/11 06:48:13;;;;;;;;;;;;;;;13.50;100.00;98858.38;110337;1270;85914;-61
2023/10/11 06:50:40;;;;;;;;;;;;;;;13.59;100.00;98852.33;110326;1270;22920;-60
2023/10/11 06:53:09;;;;;;;;;;;;;;;13.69;100.00;98845.33;110351;1270;23094;-60
2023/10/11 06:55:40;;;;;;;;;;;;;;;13.75;100.00;98845.05;110457;1269;85433;-59
2023/10/11 06:58:15;;;;;;;;;;;;;;;13.82;100.00;98849.39;110403;1270;22456;-60
2023/10/11 07:00:46;;;;;;;;;;;;;;;13.92;100.00;98840.23;110278;1270;85646;-60
2023/10/11 07:05:51;;;;;;;;;;;;;;;14.14;100.00;98839.99;110031;1270;85624;-59
2023/10/11 07:08:20;;;;;;;;;;;;;;;14.23;100.00;98828.48;110481;1270;22408;-60
2023/10/11 07:16:20;;;;;;;;;;;;;;;14.42;100.00;98814.90;110477;1270;25340;-60
2023/10/11 07:18:48;;;;;;;;;;;;;;;14.48;100.00;98817.06;110462;1270;85959;-61
2023/10/11 07:21:17;;;;;;;;;;;;;;;14.58;100.00;98809.48;110305;1273;22433;-61
2023/10/11 07:28:53;;;;;;;;;;;;;;;14.86;100.00;98792.96;110015;1270;22489;-61
2023/10/11 07:31:31;;;;;;;;;;;;;;;14.90;100.00;98785.58;109998;1274;84382;-61
2023/10/11 07:34:08;;;;;;;;;;;;;;;14.94;100.00;98784.70;110165;1270;23246;-61
2023/10/11 07:36:38;;;;;;;;;;;;;;;15.03;100.00;98787.91;110099;1270;85484;-60
2023/10/11 07:42:18;;;;;;;;;;;;;;;15.29;100.00;98785.75;110003;1270;85946;-60
2023/10/11 07:49:03;;;;;;;;;;;;;;;15.62;100.00;98773.44;109806;1275;86186;-60
2023/10/11 07:51:35;;;;;;;;;;;;;;;15.75;100.00;98774.66;109811;1275;22464;-60
2023/10/11 07:54:06;;;;;;;;;;;;;;;15.86;100.00;98771.80;109701;1276;88932;-61
2023/10/11 07:56:35;;;;;;;;;;;;;;;16.01;100.00;98769.69;109786;1275;22456;-61
2023/10/11 07:59:07;;;;;;;;;;;;;;;16.28;100.00;98760.17;109780;1275;22525;-60
2023/10/11 08:01:42;;;;;;;;;;;;;;;16.52;100.00;98760.94;109742;1270;85496;-60
2023/10/11 08:04:10;;;;;;;;;;;;;;;16.68;100.00;98759.98;109746;1282;23340;-60
2023/10/11 08:06:39;;;;;;;;;;;;;;;16.84;100.00;98764.13;109745;1276;84360;-60
2023/10/11 08:09:07;;;;;;;;;;;;;;;17.01;100.00;98760.69;109868;1278;22467;-59
2023/10/11 08:11:37;;;;;;;;;;;;;;;17.24;100.00;98756.28;109749;1281;86479;-60
2023/10/11 08:14:13;;;;;;;;;;;;;;;17.57;100.00;98752.05;109770;1277;22530;-60
2023/10/11 08:16:41;;;;;;;;;;;;;;;17.87;100.00;98753.55;109797;1275;22915;-60
2023/10/11 08:19:11;;;;;;;;;;;;;;;18.14;100.00;98751.89;109774;1275;85826;-59
2023/10/11 08:21:38;;;;;;;;;;;;;;;18.44;100.00;98745.34;109770;1274;22647;-60
2023/10/11 08:24:06;;;;;;;;;;;;;;;18.54;100.00;98744.61;109783;1275;86833;-60
2023/10/11 08:26:42;;;;;;;;;;;;;;;18.56;100.00;98743.34;110117;1274;22498;-59
2023/10/11 08:29:27;;;;;;;;;;;;;;;19.19;100.00;98732.72;110216;1270;22506;-60
2023/10/11 08:31:58;;;;;;;;;;;;;;;19.90;99.94;98734.77;110066;1270;85779;-59
2023/10/11 08:34:26;;;;;;;;;;;;;;;20.24;99.62;98722.27;110204;1274;23605;-60
2023/10/11 08:36:56;;;;;;;;;;;;;;;20.58;99.59;98716.32;110102;1271;85858;-59
2023/10/11 08:39:44;;;;;;;;;;;;;;;21.23;99.57;98713.52;110214;1270;23819;-59
2023/10/11 08:42:14;;;;;;;;;;;;;;;22.18;98.88;98705.41;110063;1264;86552;-60
2023/10/11 08:44:45;;;;;;;;;;;;;;;22.86;98.08;98715.00;110154;1270;23594;-60
2023/10/11 08:47:19;;;;;;;;;;;;;;;23.49;97.34;98713.19;110211;1275;23716;-60
2023/10/11 08:49:48;;;;;;;;;;;;;;;24.12;96.35;98704.17;110094;1271;84907;-60
2023/10/11 08:52:18;;;;;;;;;;;;;;;24.78;96.29;98702.59;110225;1267;23721;-60
2023/10/11 08:54:45;;;;;;;;;;;;;;;25.38;94.76;98697.13;110145;1270;85992;-59
2023/10/11 08:57:13;;;;;;;;;;;;;;;26.29;94.74;98691.55;110184;1261;22444;-60
2023/10/11 08:59:50;;;;;;;;;;;;;;;27.00;93.02;98689.88;110186;1276;86290;-67
2023/10/11 09:02:19;;;;;;;;;;;;;;;27.55;90.93;98694.98;110315;1264;22510;-64
2023/10/11 09:05:18;;;;;;;;;;;;;;;27.99;89.45;98684.42;110503;1270;23348;-60
2023/10/11 09:07:45;;;;;;;;;;;;;;;28.44;88.34;98690.66;110366;1270;85508;-62
2023/10/11 09:10:25;;;;;;;;;;;;;;;28.73;88.26;98683.29;110445;1270;22456;-61
2023/10/11 09:12:56;;;;;;;;;;;;;;;29.11;86.49;98678.91;110469;1269;86402;-62
2023/10/11 09:15:42;;;;;;;;;;;;;;;28.93;84.32;98666.98;110402;1254;22484;-57
2023/10/11 09:18:13;;;;;;;;;;;;;;;29.28;83.88;98665.91;110270;1272;84478;-57
2023/10/11 09:20:43;;;;;;;;;;;;;;;30.14;82.62;98664.25;110356;1271;22449;-57
2023/10/11 09:23:14;;;;;;;;;;;;;;;30.85;80.94;98665.74;110204;1271;22429;-56
2023/10/11 09:28:22;;;;;;;;;;;;;;;31.75;77.43;98660.48;109944;1268;22459;-57
2023/10/11 09:31:03;;;;;;;;;;;;;;;31.85;75.51;98666.48;109986;1273;85434;-57
2023/10/11 09:33:38;;;;;;;;;;;;;;;32.74;75.65;98670.80;110059;1275;22489;-58
2023/10/11 09:36:12;;;;;;;;;;;;;;;34.18;74.17;98667.69;110025;1280;85575;-58
2023/10/11 09:38:39;;;;;;;;;;;;;;;34.72;71.17;98659.14;110096;1274;22487;-58
2023/10/11 09:41:08;;;;;;;;;;;;;;;34.87;68.76;98657.83;110085;1280;23348;-57
2023/10/11 09:43:44;;;;;;;;;;;;;;;34.91;66.91;98656.40;109943;1277;85797;-57
2023/10/11 09:46:11;;;;;;;;;;;;;;;35.03;65.20;98656.78;110103;1271;23601;-58
2023/10/11 09:48:42;;;;;;;;;;;;;;;35.10;62.99;98659.58;110036;1275;85416;-56
2023/10/11 09:51:13;;;;;;;;;;;;;;;35.27;61.47;98659.88;110124;1275;22469;-56
2023/10/11 09:53:42;;;;;;;;;;;;;;;35.91;60.87;98662.23;109630;1267;161338;-56
2023/10/11 09:56:43;;;;;;;;;;;;;;;36.16;58.58;98656.02;110050;1277;22474;-56
2023/10/11 09:59:27;;;;;;;;;;;;;;;35.72;55.05;98670.22;84920;1283;373198;-57
2023/10/11 10:04:54;;;;;;;;;;;;;;;36.12;49.96;98682.41;105453;293;599226;-57
2023/10/11 10:07:28;;;;;;;;;;;;;;;36.14;46.50;98684.60;109234;290;83598;-56
2023/10/11 10:10:01;;;;;;;;;;;;;;;36.41;46.12;98681.02;1553;1325;118557;-56
2023/10/11 10:13:17;;;;;;;;;;;;;;;36.56;43.92;98668.31;1591;313;184569;-57
2023/10/11 10:15:53;;;;;;;;;;;;;;;36.46;42.69;98660.69;1706;313;116217;-57
2023/10/11 10:18:45;;;;;;;;;;;;;;;36.88;41.95;98655.75;1671;308;3389077;-58
2023/10/11 10:21:55;;;;;;;;;;;;;;;37.19;40.44;98653.83;1613;311;115922;-59
2023/10/11 10:25:22;;;;;;;;;;;;;;;36.70;37.93;98644.84;1665;1313;184110;-59
2023/10/11 10:28:58;;;;;;;;;;;;;;;36.11;36.29;98646.45;1636;315;117004;-58
2023/10/11 10:31:59;;;;;;;;;;;;;;;35.95;36.09;98642.21;1644;306;183965;-59
2023/10/11 10:35:19;;;;;;;;;;;;;;;35.58;34.80;98635.09;1674;1311;116535;-57
2023/10/11 10:37:51;;;;;;;;;;;;;;;34.68;34.18;98645.17;1705;307;184257;-57
2023/10/11 10:40:27;;;;;;;;;;;;;;;34.39;33.54;98646.23;1589;308;116743;-58
2023/10/11 10:43:09;;;;;;;;;;;;;;;33.27;33.38;98646.60;1641;308;184650;-57
2023/10/11 10:45:41;;;;;;;;;;;;;;;32.49;33.04;98635.86;1726;1314;115830;-58
2023/10/11 10:48:14;;;;;;;;;;;;;;;31.51;33.13;98637.31;1619;364;185532;-57
2023/10/11 10:50:52;;;;;;;;;;;;;;;30.82;33.52;98634.31;1711;1298;115641;-58
2023/10/11 10:53:36;;;;;;;;;;;;;;;30.42;33.81;98630.09;1773;1294;116428;-58
2023/10/11 10:56:29;;;;;;;;;;;;;;;29.87;34.04;98629.20;1685;1295;117857;-58
2023/10/11 10:59:11;;;;;;;;;;;;;;;29.69;34.47;98622.81;1746;316;116047;-57
2023/10/11 11:01:44;;;;;;;;;;;;;;;29.38;34.84;98628.23;1695;304;184205;-57
2023/10/11 11:04:16;;;;;;;;;;;;;;;28.73;34.74;98630.40;1705;307;116059;-59
2023/10/11 11:06:48;;;;;;;;;;;;;;;28.16;35.36;98624.95;1687;321;115792;-58
2023/10/11 11:09:26;;;;;;;;;;;;;;;27.98;35.77;98621.48;1699;1308;116535;-58
2023/10/11 11:12:09;;;;;;;;;;;;;;;27.94;35.99;98620.05;1634;307;185067;-57
2023/10/11 11:14:51;;;;;;;;;;;;;;;27.97;36.45;98622.52;1695;300;116634;-58
2023/10/11 11:17:21;;;;;;;;;;;;;;;28.22;37.22;98613.25;1684;1292;116306;-64
2023/10/11 11:20:12;;;;;;;;;;;;;;;29.34;37.54;98611.05;1943;310;184324;-57
2023/10/11 11:22:41;;;;;;;;;;;;;;;29.37;37.03;98619.14;1786;302;116147;-57
2023/10/11 11:25:26;;;;;;;;;;;;;;;29.38;37.56;98623.39;1729;307;184229;-63
2023/10/11 11:30:34;;;;;;;;;;;;;;;30.96;37.88;98614.39;1718;309;185399;-58
2023/10/11 11:33:13;;;;;;;;;;;;;;;32.09;37.67;98611.64;1674;320;116491;-57
2023/10/11 11:35:44;;;;;;;;;;;;;;;32.05;36.69;98619.71;1707;316;184634;-58
2023/10/11 11:38:20;;;;;;;;;;;;;;;31.69;36.57;98615.27;1731;346;115629;-59
2023/10/11 11:40:59;;;;;;;;;;;;;;;31.90;36.23;98596.52;1665;309;115932;-57
2023/10/11 11:43:34;;;;;;;;;;;;;;;31.93;35.74;98597.30;1701;311;184424;-60
2023/10/11 11:46:03;;;;;;;;;;;;;;;31.90;35.44;98599.34;1677;312;116455;-59
2023/10/11 11:48:41;;;;;;;;;;;;;;;31.49;35.25;98596.12;1712;310;184317;-58
2023/10/11 11:51:13;;;;;;;;;;;;;;;31.36;35.31;98602.65;1708;308;116286;-60
2023/10/11 11:53:43;;;;;;;;;;;;;;;31.15;34.84;98601.55;1759;316;184575;-58
2023/10/11 11:56:12;;;;;;;;;;;;;;;30.67;34.40;98595.55;1744;307;115649;-58
2023/10/11 11:58:46;;;;;;;;;;;;;;;29.88;34.55;98602.82;1790;307;115611;-58
2023/10/11 12:01:19;;;;;;;;;;;;;;;30.09;35.00;98601.08;1737;308;184256;-58
2023/10/11 12:03:54;;;;;;;;;;;;;;;30.46;35.10;98592.88;1791;310;115910;-58
2023/10/11 12:06:24;;;;;;;;;;;;;;;30.41;34.77;98591.36;1760;307;184927;-59
2023/10/11 12:08:58;;;;;;;;;;;;;;;30.16;34.99;98597.65;1777;306;116142;-70
2023/10/11 12:11:30;;;;;;;;;;;;;;;29.19;34.61;98592.24;1769;1296;115745;-73
2023/10/11 12:14:10;;;;;;;;;;;;;;;27.95;34.80;98595.30;1766;306;184437;-77
2023/10/11 12:16:42;;;;;;;;;;;;;;;26.92;35.13;98585.42;1760;306;115601;-68
2023/10/11 12:19:16;;;;;;;;;;;;;;;26.04;35.77;98599.48;1712;314;184436;-72
2023/10/11 12:21:45;;;;;;;;;;;;;;;25.53;36.22;98603.09;1765;302;115650;-70
2023/10/11 12:24:14;;;;;;;;;;;;;;;25.18;36.96;98609.66;1783;292;184058;-69
2023/10/11 12:26:58;;;;;;;;;;;;;;;25.15;37.49;98616.13;1791;306;115787;-70
2023/10/11 12:29:29;;;;;;;;;;;;;;;25.34;38.38;98616.08;1807;306;115816;-71
2023/10/11 12:32:01;;;;;;;;;;;;;;;25.56;38.46;98610.40;1749;308;184198;-69
2023/10/11 12:34:32;;;;;;;;;;;;;;;25.49;38.92;98609.48;1750;310;117225;-69
2023/10/11 12:37:02;;;;;;;;;;;;;;;25.25;38.94;98598.50;1780;306;184454;-70
2023/10/11 12:39:33;;;;;;;;;;;;;;;24.75;39.31;98607.94;1737;303;115821;-69
2023/10/11 12:42:03;;;;;;;;;;;;;;;24.32;39.88;98611.20;1776;304;184504;-72
2023/10/11 12:44:31;;;;;;;;;;;;;;;23.93;40.01;98603.46;1772;300;116162;-71
2023/10/11 12:47:00;;;;;;;;;;;;;;;23.48;40.39;98606.95;1761;332;115867;-71
2023/10/11 12:49:29;;;;;;;;;;;;;;;23.11;40.70;98610.42;1780;305;184361;-69
2023/10/11 12:51:59;;;;;;;;;;;;;;;22.93;41.14;98606.46;1751;304;116230;-70
2023/10/11 12:54:28;;;;;;;;;;;;;;;22.80;41.51;98606.88;1772;305;184358;-69
2023/10/11 12:56:56;;;;;;;;;;;;;;;22.77;41.94;98613.06;1754;306;115736;-69
2023/10/11 12:59:25;;;;;;;;;;;;;;;22.66;42.42;98613.70;1793;307;116051;-69
2023/10/11 13:01:55;;;;;;;;;;;;;;;22.51;42.48;98614.13;1761;305;184315;-69
2023/10/11 13:04:24;;;;;;;;;;;;;;;22.32;43.07;98614.34;1775;307;115642;-69
2023/10/11 13:06:53;;;;;;;;;;;;;;;22.19;43.22;98609.65;1724;309;186046;-68
2023/10/11 13:09:23;;;;;;;;;;;;;;;22.04;43.56;98611.13;1760;305;116070;-67
2023/10/11 13:11:56;;;;;;;;;;;;;;;21.86;44.11;98613.95;1760;1297;184492;-69
2023/10/11 13:14:27;;;;;;;;;;;;;;;21.79;44.51;98604.02;1754;1299;115839;-69
2023/10/11 13:16:58;;;;;;;;;;;;;;;21.67;44.51;98600.30;1796;303;115864;-69
2023/10/11 13:19:27;;;;;;;;;;;;;;;21.55;44.91;98598.01;1764;1312;184418;-67
2023/10/11 13:21:56;;;;;;;;;;;;;;;21.47;45.34;98611.97;1872;303;115628;-69
2023/10/11 13:24:25;;;;;;;;;;;;;;;21.41;45.58;98605.20;1845;300;185612;-68
2023/10/11 13:26:56;;;;;;;;;;;;;;;21.36;45.84;98609.30;1775;290;115647;-68
2023/10/11 13:29:25;;;;;;;;;;;;;;;21.25;46.03;98611.64;1798;303;115766;-68
2023/10/11 13:31:55;;;;;;;;;;;;;;;21.10;46.40;98620.04;1779;305;184610;-68
2023/10/11 13:34:24;;;;;;;;;;;;;;;21.07;46.67;98615.92;1769;307;115990;-67
2023/10/11 13:36:57;;;;;;;;;;;;;;;21.00;46.96;98611.79;1774;304;184632;-68
2023/10/11 13:39:37;;;;;;;;;;;;;;;20.91;47.10;98600.94;1786;305;115699;-67
2023/10/11 13:42:14;;;;;;;;;;;;;;;20.77;47.65;98603.29;1738;309;184411;-68
2023/10/11 13:44:43;;;;;;;;;;;;;;;20.74;47.59;98597.48;1723;307;116253;-68
2023/10/11 13:47:13;;;;;;;;;;;;;;;20.62;47.79;98600.48;1759;303;115825;-68
2023/10/11 13:49:42;;;;;;;;;;;;;;;20.52;48.23;98601.14;1783;304;185609;-68
2023/10/11 13:52:12;;;;;;;;;;;;;;;20.48;48.57;98598.58;1779;307;115823;-65
2023/10/11 13:54:46;;;;;;;;;;;;;;;20.42;48.91;98600.76;1776;301;185593;-67
2023/10/11 13:57:21;;;;;;;;;;;;;;;20.39;49.15;98602.70;1747;301;115638;-66
2023/10/11 13:59:53;;;;;;;;;;;;;;;20.34;49.62;98606.93;1740;364;184525;-67
2023/10/11 14:05:13;;;;;;;;;;;;;;;20.17;50.08;98597.08;1803;304;115747;-68
2023/10/11 14:07:50;;;;;;;;;;;;;;;20.15;50.24;98584.31;1742;309;184282;-69
2023/10/11 14:10:28;;;;;;;;;;;;;;;20.10;50.49;98583.67;1761;309;115812;-68
2023/10/11 14:13:08;;;;;;;;;;;;;;;20.06;50.86;98582.67;1721;307;184289;-70
2023/10/11 14:15:37;;;;;;;;;;;;;;;19.97;51.06;98575.09;1790;355;115933;-70
2023/10/11 14:18:14;;;;;;;;;;;;;;;19.87;51.15;98575.05;1775;300;184622;-70
2023/10/11 14:20:49;;;;;;;;;;;;;;;19.77;51.75;98582.15;1779;298;116021;-69
2023/10/11 14:23:17;;;;;;;;;;;;;;;19.74;51.93;98574.13;1753;308;115873;-70
2023/10/11 14:25:52;;;;;;;;;;;;;;;19.70;52.19;98576.90;1760;309;185116;-68